Weather at Vienna International Airport

Public forecast

Using degrees Celsius for public forecast. Weather courtesy of forecast.io.

Current aviation weather report (METAR) for Vienna International Airport

Retrieved 2021/10/26 08:20 UTC (25 minutes ago):

LOWW 260820Z 18004KT 130V210 CAVOK 06/01 Q1025 NOSIG

Aviation forecast (TAF) for Vienna International Airport

Retrieved 2021-10-26 03:23 UTC (5 hours ago):

TAF LOWW 260215Z 2603/2709 13007KT CAVOK TX10/2614Z TN02/2605Z TEMPO 2604/2607 MIFG BECMG 2607/2609 VRB04KT PROB40 TEMPO 2704/2706 2500 BCFG